sensor_id;sensor_type;location;lat;lon;timestamp;temperature;humidity
18998;DHT22;9632;51.018;4.284;2022-10-26T00:00:24;15.40;99.90
18998;DHT22;9632;51.018;4.284;2022-10-26T00:02:49;15.50;99.90
18998;DHT22;9632;51.018;4.284;2022-10-26T00:05:15;15.50;99.90
18998;DHT22;9632;51.018;4.284;2022-10-26T00:07:41;15.40;99.90
18998;DHT22;9632;51.018;4.284;2022-10-26T00:10:07;15.40;99.90
18998;DHT22;9632;51.018;4.284;2022-10-26T00:12:32;15.40;99.90
18998;DHT22;9632;51.018;4.284;2022-10-26T00:14:58;15.40;99.90
18998;DHT22;9632;51.018;4.284;2022-10-26T00:17:24;15.40;99.90
18998;DHT22;9632;51.018;4.284;2022-10-26T00:19:49;15.40;99.90
18998;DHT22;9632;51.018;4.284;2022-10-26T00:22:15;15.30;99.90
18998;DHT22;9632;51.018;4.284;2022-10-26T00:24:40;15.30;99.90
18998;DHT22;9632;51.018;4.284;2022-10-26T00:27:06;15.30;99.90
18998;DHT22;9632;51.018;4.284;2022-10-26T00:29:32;15.40;99.90
18998;DHT22;9632;51.018;4.284;2022-10-26T00:31:57;15.30;99.90
18998;DHT22;9632;51.018;4.284;2022-10-26T00:34:23;15.30;99.90
18998;DHT22;9632;51.018;4.284;2022-10-26T00:36:49;15.30;99.90
18998;DHT22;9632;51.018;4.284;2022-10-26T00:39:14;15.30;99.90
18998;DHT22;9632;51.018;4.284;2022-10-26T00:41:40;15.40;99.90
18998;DHT22;9632;51.018;4.284;2022-10-26T00:48:15;15.40;99.90
18998;DHT22;9632;51.018;4.284;2022-10-26T00:50:28;15.40;99.90
18998;DHT22;9632;51.018;4.284;2022-10-26T00:52:57;15.30;99.90
18998;DHT22;9632;51.018;4.284;2022-10-26T00:55:26;15.30;99.90
18998;DHT22;9632;51.018;4.284;2022-10-26T00:57:53;15.30;99.90
18998;DHT22;9632;51.018;4.284;2022-10-26T01:00:20;15.20;99.90
18998;DHT22;9632;51.018;4.284;2022-10-26T01:02:47;15.30;99.90
18998;DHT22;9632;51.018;4.284;2022-10-26T01:05:15;15.30;99.90
18998;DHT22;9632;51.018;4.284;2022-10-26T01:07:42;15.30;99.90
18998;DHT22;9632;51.018;4.284;2022-10-26T01:10:09;15.30;99.90
18998;DHT22;9632;51.018;4.284;2022-10-26T01:12:35;15.30;99.90
18998;DHT22;9632;51.018;4.284;2022-10-26T01:15:02;15.30;99.90
18998;DHT22;9632;51.018;4.284;2022-10-26T01:23:07;15.30;99.90
18998;DHT22;9632;51.018;4.284;2022-10-26T01:26:11;15.40;99.90
18998;DHT22;9632;51.018;4.284;2022-10-26T01:31:39;15.30;99.90
18998;DHT22;9632;51.018;4.284;2022-10-26T01:34:11;15.30;99.90
18998;DHT22;9632;51.018;4.284;2022-10-26T01:36:45;15.30;99.90
18998;DHT22;9632;51.018;4.284;2022-10-26T01:39:19;15.30;99.90
18998;DHT22;9632;51.018;4.284;2022-10-26T01:41:49;15.30;99.90
18998;DHT22;9632;51.018;4.284;2022-10-26T01:44:45;15.30;99.90
18998;DHT22;9632;51.018;4.284;2022-10-26T01:47:14;15.30;99.90
18998;DHT22;9632;51.018;4.284;2022-10-26T01:49:54;15.30;99.90
18998;DHT22;9632;51.018;4.284;2022-10-26T01:52:21;15.30;99.90
18998;DHT22;9632;51.018;4.284;2022-10-26T01:54:47;15.40;99.90
18998;DHT22;9632;51.018;4.284;2022-10-26T01:57:16;15.40;99.90
18998;DHT22;9632;51.018;4.284;2022-10-26T02:00:13;15.40;99.90
18998;DHT22;9632;51.018;4.284;2022-10-26T02:05:34;15.40;99.90
18998;DHT22;9632;51.018;4.284;2022-10-26T02:08:05;15.40;99.90
18998;DHT22;9632;51.018;4.284;2022-10-26T02:13:20;15.30;99.90
18998;DHT22;9632;51.018;4.284;2022-10-26T02:16:24;15.30;99.90
18998;DHT22;9632;51.018;4.284;2022-10-26T02:21:47;15.40;99.90
18998;DHT22;9632;51.018;4.284;2022-10-26T02:24:16;15.40;99.90
18998;DHT22;9632;51.018;4.284;2022-10-26T02:26:46;15.40;99.90
18998;DHT22;9632;51.018;4.284;2022-10-26T02:29:16;15.40;99.90
18998;DHT22;9632;51.018;4.284;2022-10-26T02:31:43;15.40;99.90
18998;DHT22;9632;51.018;4.284;2022-10-26T02:34:11;15.40;99.90
18998;DHT22;9632;51.018;4.284;2022-10-26T02:36:41;15.40;99.90
18998;DHT22;9632;51.018;4.284;2022-10-26T02:39:09;15.40;99.90
18998;DHT22;9632;51.018;4.284;2022-10-26T02:41:38;15.40;99.90
18998;DHT22;9632;51.018;4.284;2022-10-26T02:46:31;15.40;99.90
18998;DHT22;9632;51.018;4.284;2022-10-26T02:48:56;15.40;99.90
18998;DHT22;9632;51.018;4.284;2022-10-26T02:51:41;15.40;99.90
18998;DHT22;9632;51.018;4.284;2022-10-26T02:54:17;15.40;99.90
18998;DHT22;9632;51.018;4.284;2022-10-26T02:56:53;15.40;99.90
18998;DHT22;9632;51.018;4.284;2022-10-26T02:59:21;15.40;99.90
18998;DHT22;9632;51.018;4.284;2022-10-26T03:01:50;15.40;99.90
18998;DHT22;9632;51.018;4.284;2022-10-26T03:04:16;15.40;99.90
18998;DHT22;9632;51.018;4.284;2022-10-26T03:06:42;15.40;99.90
18998;DHT22;9632;51.018;4.284;2022-10-26T03:09:15;15.40;99.90
18998;DHT22;9632;51.018;4.284;2022-10-26T03:11:41;15.40;99.90
18998;DHT22;9632;51.018;4.284;2022-10-26T03:14:06;15.50;99.90
18998;DHT22;9632;51.018;4.284;2022-10-26T03:16:32;15.50;99.90
18998;DHT22;9632;51.018;4.284;2022-10-26T03:18:58;15.40;99.90
18998;DHT22;9632;51.018;4.284;2022-10-26T03:21:23;15.50;99.90
18998;DHT22;9632;51.018;4.284;2022-10-26T03:23:49;15.50;99.90
18998;DHT22;9632;51.018;4.284;2022-10-26T03:26:15;15.50;99.90
18998;DHT22;9632;51.018;4.284;2022-10-26T03:28:41;15.50;99.90
18998;DHT22;9632;51.018;4.284;2022-10-26T03:31:07;15.50;99.90
18998;DHT22;9632;51.018;4.284;2022-10-26T03:33:32;15.50;99.90
18998;DHT22;9632;51.018;4.284;2022-10-26T03:35:58;15.50;99.90
18998;DHT22;9632;51.018;4.284;2022-10-26T03:38:24;15.50;99.90
18998;DHT22;9632;51.018;4.284;2022-10-26T03:40:49;15.50;99.90
18998;DHT22;9632;51.018;4.284;2022-10-26T03:43:15;15.50;99.90
18998;DHT22;9632;51.018;4.284;2022-10-26T03:45:40;15.50;99.90
18998;DHT22;9632;51.018;4.284;2022-10-26T03:48:06;15.50;99.90
18998;DHT22;9632;51.018;4.284;2022-10-26T03:50:32;15.50;99.90
18998;DHT22;9632;51.018;4.284;2022-10-26T03:52:57;15.50;99.90
18998;DHT22;9632;51.018;4.284;2022-10-26T03:55:23;15.50;99.90
18998;DHT22;9632;51.018;4.284;2022-10-26T03:57:48;15.50;99.90
18998;DHT22;9632;51.018;4.284;2022-10-26T04:00:16;15.50;99.90
18998;DHT22;9632;51.018;4.284;2022-10-26T04:02:42;15.50;99.90
18998;DHT22;9632;51.018;4.284;2022-10-26T04:05:11;15.50;99.90
18998;DHT22;9632;51.018;4.284;2022-10-26T04:07:36;15.50;99.90
18998;DHT22;9632;51.018;4.284;2022-10-26T04:10:03;15.50;99.90
18998;DHT22;9632;51.018;4.284;2022-10-26T04:12:29;15.50;99.90
18998;DHT22;9632;51.018;4.284;2022-10-26T04:14:54;15.50;99.90
18998;DHT22;9632;51.018;4.284;2022-10-26T04:17:23;15.50;99.90
18998;DHT22;9632;51.018;4.284;2022-10-26T04:19:48;15.50;99.90
18998;DHT22;9632;51.018;4.284;2022-10-26T04:22:14;15.50;99.90
18998;DHT22;9632;51.018;4.284;2022-10-26T04:24:40;15.50;99.90
18998;DHT22;9632;51.018;4.284;2022-10-26T04:27:05;15.50;99.90
18998;DHT22;9632;51.018;4.284;2022-10-26T04:29:31;15.50;99.90
18998;DHT22;9632;51.018;4.284;2022-10-26T04:31:56;15.50;99.90
18998;DHT22;9632;51.018;4.284;2022-10-26T04:34:22;15.50;99.90
18998;DHT22;9632;51.018;4.284;2022-10-26T04:36:47;15.50;99.90
18998;DHT22;9632;51.018;4.284;2022-10-26T04:39:13;15.50;99.90
18998;DHT22;9632;51.018;4.284;2022-10-26T04:41:39;15.50;99.90
18998;DHT22;9632;51.018;4.284;2022-10-26T04:44:04;15.50;99.90
18998;DHT22;9632;51.018;4.284;2022-10-26T04:46:30;15.50;99.90
18998;DHT22;9632;51.018;4.284;2022-10-26T04:48:55;15.50;99.90
18998;DHT22;9632;51.018;4.284;2022-10-26T04:51:21;15.50;99.90
18998;DHT22;9632;51.018;4.284;2022-10-26T04:53:46;15.60;99.90
18998;DHT22;9632;51.018;4.284;2022-10-26T04:56:12;15.60;99.90
18998;DHT22;9632;51.018;4.284;2022-10-26T04:58:38;15.60;99.90
18998;DHT22;9632;51.018;4.284;2022-10-26T05:01:03;15.60;99.90
18998;DHT22;9632;51.018;4.284;2022-10-26T05:03:29;15.60;99.90
18998;DHT22;9632;51.018;4.284;2022-10-26T05:05:57;15.60;99.90
18998;DHT22;9632;51.018;4.284;2022-10-26T05:08:23;15.60;99.90
18998;DHT22;9632;51.018;4.284;2022-10-26T05:10:49;15.60;99.90
18998;DHT22;9632;51.018;4.284;2022-10-26T05:13:15;15.60;99.90
18998;DHT22;9632;51.018;4.284;2022-10-26T05:15:41;15.60;99.90
18998;DHT22;9632;51.018;4.284;2022-10-26T05:18:06;15.70;99.90
18998;DHT22;9632;51.018;4.284;2022-10-26T05:20:34;15.70;99.90
18998;DHT22;9632;51.018;4.284;2022-10-26T05:23:02;15.70;99.90
18998;DHT22;9632;51.018;4.284;2022-10-26T05:25:30;15.80;99.90
18998;DHT22;9632;51.018;4.284;2022-10-26T05:28:01;15.80;99.90
18998;DHT22;9632;51.018;4.284;2022-10-26T05:30:27;15.90;99.90
18998;DHT22;9632;51.018;4.284;2022-10-26T05:32:57;15.90;99.90
18998;DHT22;9632;51.018;4.284;2022-10-26T05:35:24;15.90;99.90
18998;DHT22;9632;51.018;4.284;2022-10-26T05:37:50;16.00;99.90
18998;DHT22;9632;51.018;4.284;2022-10-26T05:40:16;16.10;99.90
18998;DHT22;9632;51.018;4.284;2022-10-26T05:42:42;16.10;99.90
18998;DHT22;9632;51.018;4.284;2022-10-26T05:45:08;16.20;99.90
18998;DHT22;9632;51.018;4.284;2022-10-26T05:47:38;16.30;99.90
18998;DHT22;9632;51.018;4.284;2022-10-26T05:50:04;16.40;99.90
18998;DHT22;9632;51.018;4.284;2022-10-26T05:52:36;16.50;99.90
18998;DHT22;9632;51.018;4.284;2022-10-26T05:55:02;16.50;99.90
18998;DHT22;9632;51.018;4.284;2022-10-26T05:57:28;16.50;99.90
18998;DHT22;9632;51.018;4.284;2022-10-26T05:59:54;16.60;99.90
18998;DHT22;9632;51.018;4.284;2022-10-26T06:02:33;16.60;99.90
18998;DHT22;9632;51.018;4.284;2022-10-26T06:05:06;16.60;99.90
18998;DHT22;9632;51.018;4.284;2022-10-26T06:07:36;16.60;99.90
18998;DHT22;9632;51.018;4.284;2022-10-26T06:10:03;16.50;99.90
18998;DHT22;9632;51.018;4.284;2022-10-26T06:12:29;16.50;99.90
18998;DHT22;9632;51.018;4.284;2022-10-26T06:14:55;16.50;99.90
18998;DHT22;9632;51.018;4.284;2022-10-26T06:17:34;16.50;99.90
18998;DHT22;9632;51.018;4.284;2022-10-26T06:30:43;16.50;99.90
18998;DHT22;9632;51.018;4.284;2022-10-26T06:33:12;16.50;99.90
18998;DHT22;9632;51.018;4.284;2022-10-26T06:38:10;16.60;99.90
18998;DHT22;9632;51.018;4.284;2022-10-26T06:40:39;16.60;99.90
18998;DHT22;9632;51.018;4.284;2022-10-26T06:43:26;16.60;99.90
18998;DHT22;9632;51.018;4.284;2022-10-26T06:49:17;16.50;99.90
18998;DHT22;9632;51.018;4.284;2022-10-26T06:51:50;16.50;99.90
18998;DHT22;9632;51.018;4.284;2022-10-26T06:57:12;16.60;99.90
18998;DHT22;9632;51.018;4.284;2022-10-26T06:59:50;16.60;99.90
18998;DHT22;9632;51.018;4.284;2022-10-26T07:02:17;16.60;99.90
18998;DHT22;9632;51.018;4.284;2022-10-26T07:04:44;16.60;99.90
18998;DHT22;9632;51.018;4.284;2022-10-26T07:07:35;16.60;99.90
18998;DHT22;9632;51.018;4.284;2022-10-26T07:10:04;16.60;99.90
18998;DHT22;9632;51.018;4.284;2022-10-26T07:12:31;16.60;99.90
18998;DHT22;9632;51.018;4.284;2022-10-26T07:14:57;16.50;99.90
18998;DHT22;9632;51.018;4.284;2022-10-26T07:17:22;16.60;99.90
18998;DHT22;9632;51.018;4.284;2022-10-26T07:19:48;16.60;99.90
18998;DHT22;9632;51.018;4.284;2022-10-26T07:22:14;16.70;99.90
18998;DHT22;9632;51.018;4.284;2022-10-26T07:24:39;16.70;99.90
18998;DHT22;9632;51.018;4.284;2022-10-26T07:27:05;16.70;99.90
18998;DHT22;9632;51.018;4.284;2022-10-26T07:29:31;16.70;99.90
18998;DHT22;9632;51.018;4.284;2022-10-26T07:31:56;16.80;99.90
18998;DHT22;9632;51.018;4.284;2022-10-26T07:34:22;16.90;99.90
18998;DHT22;9632;51.018;4.284;2022-10-26T07:36:47;16.90;99.90
18998;DHT22;9632;51.018;4.284;2022-10-26T07:39:13;16.90;99.90
18998;DHT22;9632;51.018;4.284;2022-10-26T07:41:39;17.00;99.90
18998;DHT22;9632;51.018;4.284;2022-10-26T07:44:04;17.10;99.90
18998;DHT22;9632;51.018;4.284;2022-10-26T07:46:30;17.10;99.90
18998;DHT22;9632;51.018;4.284;2022-10-26T07:48:55;17.10;99.90
18998;DHT22;9632;51.018;4.284;2022-10-26T07:51:21;17.20;99.90
18998;DHT22;9632;51.018;4.284;2022-10-26T07:53:47;17.30;99.90
18998;DHT22;9632;51.018;4.284;2022-10-26T07:56:12;17.40;99.90
18998;DHT22;9632;51.018;4.284;2022-10-26T07:58:38;17.40;99.90
18998;DHT22;9632;51.018;4.284;2022-10-26T08:01:12;17.40;99.90
18998;DHT22;9632;51.018;4.284;2022-10-26T08:03:38;17.50;99.90
18998;DHT22;9632;51.018;4.284;2022-10-26T08:06:04;17.50;99.90
18998;DHT22;9632;51.018;4.284;2022-10-26T08:08:31;17.60;99.90
18998;DHT22;9632;51.018;4.284;2022-10-26T08:10:57;17.60;99.90
18998;DHT22;9632;51.018;4.284;2022-10-26T08:13:22;17.70;99.90
18998;DHT22;9632;51.018;4.284;2022-10-26T08:15:48;17.70;99.90
18998;DHT22;9632;51.018;4.284;2022-10-26T08:18:14;17.70;99.90
18998;DHT22;9632;51.018;4.284;2022-10-26T08:20:39;17.80;99.90
18998;DHT22;9632;51.018;4.284;2022-10-26T08:23:05;17.80;99.90
18998;DHT22;9632;51.018;4.284;2022-10-26T08:25:33;17.90;99.90
18998;DHT22;9632;51.018;4.284;2022-10-26T08:28:02;17.90;99.90
18998;DHT22;9632;51.018;4.284;2022-10-26T08:30:29;18.00;99.90
18998;DHT22;9632;51.018;4.284;2022-10-26T08:33:05;18.00;99.90
18998;DHT22;9632;51.018;4.284;2022-10-26T08:35:32;17.90;99.90
18998;DHT22;9632;51.018;4.284;2022-10-26T08:37:58;18.00;99.90
18998;DHT22;9632;51.018;4.284;2022-10-26T08:40:31;18.10;99.90
18998;DHT22;9632;51.018;4.284;2022-10-26T08:43:09;18.20;99.90
18998;DHT22;9632;51.018;4.284;2022-10-26T08:45:40;18.30;99.90
18998;DHT22;9632;51.018;4.284;2022-10-26T08:48:16;18.30;99.90
18998;DHT22;9632;51.018;4.284;2022-10-26T08:50:54;18.30;99.90
18998;DHT22;9632;51.018;4.284;2022-10-26T08:56:10;18.50;99.90
18998;DHT22;9632;51.018;4.284;2022-10-26T08:58:40;18.60;99.90
18998;DHT22;9632;51.018;4.284;2022-10-26T09:01:08;18.70;99.90
18998;DHT22;9632;51.018;4.284;2022-10-26T09:03:34;18.80;99.90
18998;DHT22;9632;51.018;4.284;2022-10-26T09:06:33;18.80;99.90
18998;DHT22;9632;51.018;4.284;2022-10-26T09:14:20;19.00;99.90
18998;DHT22;9632;51.018;4.284;2022-10-26T09:22:13;19.20;99.90
18998;DHT22;9632;51.018;4.284;2022-10-26T09:24:55;19.20;99.90
18998;DHT22;9632;51.018;4.284;2022-10-26T09:27:42;19.30;99.90
18998;DHT22;9632;51.018;4.284;2022-10-26T09:30:14;19.40;99.90
18998;DHT22;9632;51.018;4.284;2022-10-26T09:32:44;19.50;99.90
18998;DHT22;9632;51.018;4.284;2022-10-26T09:37:46;19.60;99.90
18998;DHT22;9632;51.018;4.284;2022-10-26T09:40:21;19.80;99.90
18998;DHT22;9632;51.018;4.284;2022-10-26T09:42:56;19.80;99.90
18998;DHT22;9632;51.018;4.284;2022-10-26T09:45:29;19.90;99.90
18998;DHT22;9632;51.018;4.284;2022-10-26T09:48:00;20.00;99.90
18998;DHT22;9632;51.018;4.284;2022-10-26T09:50:34;20.10;99.90
18998;DHT22;9632;51.018;4.284;2022-10-26T09:53:01;20.20;99.90
18998;DHT22;9632;51.018;4.284;2022-10-26T09:55:32;20.20;99.90
18998;DHT22;9632;51.018;4.284;2022-10-26T09:58:01;20.20;99.90
18998;DHT22;9632;51.018;4.284;2022-10-26T10:00:28;20.20;99.90
18998;DHT22;9632;51.018;4.284;2022-10-26T10:02:56;20.30;99.90
18998;DHT22;9632;51.018;4.284;2022-10-26T10:05:26;20.30;99.90
18998;DHT22;9632;51.018;4.284;2022-10-26T10:08:21;20.40;99.90
18998;DHT22;9632;51.018;4.284;2022-10-26T10:13:28;20.50;99.90
18998;DHT22;9632;51.018;4.284;2022-10-26T10:16:03;20.60;99.90
18998;DHT22;9632;51.018;4.284;2022-10-26T10:18:30;20.70;99.90
18998;DHT22;9632;51.018;4.284;2022-10-26T10:20:57;20.70;99.90
18998;DHT22;9632;51.018;4.284;2022-10-26T10:23:29;20.70;99.90
18998;DHT22;9632;51.018;4.284;2022-10-26T10:26:07;20.70;99.90
18998;DHT22;9632;51.018;4.284;2022-10-26T10:28:35;20.80;99.90
18998;DHT22;9632;51.018;4.284;2022-10-26T10:31:04;20.80;99.90
18998;DHT22;9632;51.018;4.284;2022-10-26T10:33:40;20.90;99.90
18998;DHT22;9632;51.018;4.284;2022-10-26T10:36:14;20.90;99.90
18998;DHT22;9632;51.018;4.284;2022-10-26T10:38:42;21.00;99.90
18998;DHT22;9632;51.018;4.284;2022-10-26T10:43:49;21.10;99.90
18998;DHT22;9632;51.018;4.284;2022-10-26T10:46:21;21.10;99.90
18998;DHT22;9632;51.018;4.284;2022-10-26T10:48:53;21.20;99.90
18998;DHT22;9632;51.018;4.284;2022-10-26T10:51:21;21.10;99.90
18998;DHT22;9632;51.018;4.284;2022-10-26T10:53:54;21.10;99.90
18998;DHT22;9632;51.018;4.284;2022-10-26T10:56:41;21.10;99.90
18998;DHT22;9632;51.018;4.284;2022-10-26T11:04:47;21.30;99.90
18998;DHT22;9632;51.018;4.284;2022-10-26T11:07:18;21.30;99.90
18998;DHT22;9632;51.018;4.284;2022-10-26T11:09:47;21.30;99.90
18998;DHT22;9632;51.018;4.284;2022-10-26T11:12:21;21.20;99.90
18998;DHT22;9632;51.018;4.284;2022-10-26T11:15:12;21.20;99.90
18998;DHT22;9632;51.018;4.284;2022-10-26T11:20:21;21.00;99.90
18998;DHT22;9632;51.018;4.284;2022-10-26T11:25:26;21.00;99.90
18998;DHT22;9632;51.018;4.284;2022-10-26T11:28:03;21.00;99.90
18998;DHT22;9632;51.018;4.284;2022-10-26T11:30:32;21.00;99.90
18998;DHT22;9632;51.018;4.284;2022-10-26T11:33:09;21.00;99.90
18998;DHT22;9632;51.018;4.284;2022-10-26T11:35:42;21.10;99.90
18998;DHT22;9632;51.018;4.284;2022-10-26T11:40:58;21.10;99.90
18998;DHT22;9632;51.018;4.284;2022-10-26T11:43:45;21.20;99.90
18998;DHT22;9632;51.018;4.284;2022-10-26T11:46:16;21.20;99.90
18998;DHT22;9632;51.018;4.284;2022-10-26T11:48:51;21.20;99.90
18998;DHT22;9632;51.018;4.284;2022-10-26T11:51:36;21.30;99.90
18998;DHT22;9632;51.018;4.284;2022-10-26T11:54:10;21.20;99.90
18998;DHT22;9632;51.018;4.284;2022-10-26T11:56:40;21.20;99.90
18998;DHT22;9632;51.018;4.284;2022-10-26T11:59:16;21.30;99.90
18998;DHT22;9632;51.018;4.284;2022-10-26T12:01:42;21.20;99.90
18998;DHT22;9632;51.018;4.284;2022-10-26T12:04:09;21.20;99.90
18998;DHT22;9632;51.018;4.284;2022-10-26T12:06:35;21.20;99.90
18998;DHT22;9632;51.018;4.284;2022-10-26T12:09:07;21.20;99.90
18998;DHT22;9632;51.018;4.284;2022-10-26T12:14:11;21.10;99.90
18998;DHT22;9632;51.018;4.284;2022-10-26T12:17:01;21.10;99.90
18998;DHT22;9632;51.018;4.284;2022-10-26T12:22:16;21.10;99.90
18998;DHT22;9632;51.018;4.284;2022-10-26T12:24:44;21.10;99.90
18998;DHT22;9632;51.018;4.284;2022-10-26T12:27:49;21.10;99.90
18998;DHT22;9632;51.018;4.284;2022-10-26T12:41:17;21.00;99.90
18998;DHT22;9632;51.018;4.284;2022-10-26T12:43:44;21.10;99.90
18998;DHT22;9632;51.018;4.284;2022-10-26T12:48:46;21.00;99.90
18998;DHT22;9632;51.018;4.284;2022-10-26T12:56:49;21.00;99.90
18998;DHT22;9632;51.018;4.284;2022-10-26T13:05:34;21.10;99.90
18998;DHT22;9632;51.018;4.284;2022-10-26T13:08:08;21.20;99.90
18998;DHT22;9632;51.018;4.284;2022-10-26T13:10:36;21.20;99.90
18998;DHT22;9632;51.018;4.284;2022-10-26T13:13:05;21.20;99.90
18998;DHT22;9632;51.018;4.284;2022-10-26T13:15:38;21.20;99.90
18998;DHT22;9632;51.018;4.284;2022-10-26T13:18:17;21.30;99.90
18998;DHT22;9632;51.018;4.284;2022-10-26T13:23:28;21.30;99.90
18998;DHT22;9632;51.018;4.284;2022-10-26T13:26:22;21.30;99.90
18998;DHT22;9632;51.018;4.284;2022-10-26T13:28:52;21.20;99.90
18998;DHT22;9632;51.018;4.284;2022-10-26T13:36:50;21.30;99.90
18998;DHT22;9632;51.018;4.284;2022-10-26T13:39:23;21.30;99.90
18998;DHT22;9632;51.018;4.284;2022-10-26T13:41:51;21.10;99.90
18998;DHT22;9632;51.018;4.284;2022-10-26T13:44:42;21.10;99.90
18998;DHT22;9632;51.018;4.284;2022-10-26T13:47:27;21.20;99.90
18998;DHT22;9632;51.018;4.284;2022-10-26T13:49:57;21.20;99.90
18998;DHT22;9632;51.018;4.284;2022-10-26T13:52:40;21.30;99.90
18998;DHT22;9632;51.018;4.284;2022-10-26T13:55:19;21.40;99.90
18998;DHT22;9632;51.018;4.284;2022-10-26T13:58:14;21.50;99.90
18998;DHT22;9632;51.018;4.284;2022-10-26T14:01:12;21.50;99.90
18998;DHT22;9632;51.018;4.284;2022-10-26T14:03:40;21.40;99.90
18998;DHT22;9632;51.018;4.284;2022-10-26T14:06:25;21.50;99.90
18998;DHT22;9632;51.018;4.284;2022-10-26T14:08:54;21.50;99.90
18998;DHT22;9632;51.018;4.284;2022-10-26T14:11:24;21.40;99.90
18998;DHT22;9632;51.018;4.284;2022-10-26T14:13:52;21.50;99.90
18998;DHT22;9632;51.018;4.284;2022-10-26T14:16:19;21.50;99.90
18998;DHT22;9632;51.018;4.284;2022-10-26T14:18:47;21.50;99.90
18998;DHT22;9632;51.018;4.284;2022-10-26T14:21:15;21.50;99.90
18998;DHT22;9632;51.018;4.284;2022-10-26T14:23:55;21.50;99.90
18998;DHT22;9632;51.018;4.284;2022-10-26T14:26:37;21.40;99.90
18998;DHT22;9632;51.018;4.284;2022-10-26T14:29:03;21.50;99.90
18998;DHT22;9632;51.018;4.284;2022-10-26T14:31:31;21.40;99.90
18998;DHT22;9632;51.018;4.284;2022-10-26T14:33:59;21.40;99.90
18998;DHT22;9632;51.018;4.284;2022-10-26T14:36:30;21.40;99.90
18998;DHT22;9632;51.018;4.284;2022-10-26T14:39:08;21.40;99.90
18998;DHT22;9632;51.018;4.284;2022-10-26T14:41:37;21.50;99.90
18998;DHT22;9632;51.018;4.284;2022-10-26T14:44:03;21.40;99.90
18998;DHT22;9632;51.018;4.284;2022-10-26T14:46:33;21.40;99.90
18998;DHT22;9632;51.018;4.284;2022-10-26T14:49:00;21.40;99.90
18998;DHT22;9632;51.018;4.284;2022-10-26T14:51:34;21.40;99.90
18998;DHT22;9632;51.018;4.284;2022-10-26T14:54:01;21.40;99.90
18998;DHT22;9632;51.018;4.284;2022-10-26T14:56:30;21.50;99.90
18998;DHT22;9632;51.018;4.284;2022-10-26T15:02:00;21.50;99.90
18998;DHT22;9632;51.018;4.284;2022-10-26T15:04:30;21.50;99.90
18998;DHT22;9632;51.018;4.284;2022-10-26T15:07:05;21.50;99.90
18998;DHT22;9632;51.018;4.284;2022-10-26T15:09:43;21.50;99.90
18998;DHT22;9632;51.018;4.284;2022-10-26T15:12:32;21.40;99.90
18998;DHT22;9632;51.018;4.284;2022-10-26T15:17:48;21.30;99.90
18998;DHT22;9632;51.018;4.284;2022-10-26T15:20:20;21.30;99.90
18998;DHT22;9632;51.018;4.284;2022-10-26T15:22:51;21.30;99.90
18998;DHT22;9632;51.018;4.284;2022-10-26T15:25:21;21.30;99.90
18998;DHT22;9632;51.018;4.284;2022-10-26T15:27:48;21.30;99.90
18998;DHT22;9632;51.018;4.284;2022-10-26T15:30:18;21.30;99.90
18998;DHT22;9632;51.018;4.284;2022-10-26T15:32:45;21.20;99.90
18998;DHT22;9632;51.018;4.284;2022-10-26T15:37:39;21.20;99.90
18998;DHT22;9632;51.018;4.284;2022-10-26T15:40:06;21.20;99.90
18998;DHT22;9632;51.018;4.284;2022-10-26T15:42:34;21.20;99.90
18998;DHT22;9632;51.018;4.284;2022-10-26T15:45:03;21.20;99.90
18998;DHT22;9632;51.018;4.284;2022-10-26T15:47:32;21.10;99.90
18998;DHT22;9632;51.018;4.284;2022-10-26T15:49:58;21.10;99.90
18998;DHT22;9632;51.018;4.284;2022-10-26T15:52:24;21.10;99.90
18998;DHT22;9632;51.018;4.284;2022-10-26T15:54:49;21.00;99.90
18998;DHT22;9632;51.018;4.284;2022-10-26T15:57:15;21.00;99.90
18998;DHT22;9632;51.018;4.284;2022-10-26T15:59:41;20.90;99.90
18998;DHT22;9632;51.018;4.284;2022-10-26T16:02:14;20.90;99.90
18998;DHT22;9632;51.018;4.284;2022-10-26T16:04:39;20.90;99.90
18998;DHT22;9632;51.018;4.284;2022-10-26T16:07:07;20.90;99.90
18998;DHT22;9632;51.018;4.284;2022-10-26T16:09:35;20.90;99.90
18998;DHT22;9632;51.018;4.284;2022-10-26T16:12:01;20.90;99.90
18998;DHT22;9632;51.018;4.284;2022-10-26T16:14:26;20.90;99.90
18998;DHT22;9632;51.018;4.284;2022-10-26T16:16:52;20.90;99.90
18998;DHT22;9632;51.018;4.284;2022-10-26T16:19:18;20.90;99.90
18998;DHT22;9632;51.018;4.284;2022-10-26T16:21:43;20.80;99.90
18998;DHT22;9632;51.018;4.284;2022-10-26T16:24:09;20.80;99.90
18998;DHT22;9632;51.018;4.284;2022-10-26T16:26:35;20.80;99.90
18998;DHT22;9632;51.018;4.284;2022-10-26T16:29:00;20.80;99.90
18998;DHT22;9632;51.018;4.284;2022-10-26T16:31:26;20.70;99.90
18998;DHT22;9632;51.018;4.284;2022-10-26T16:33:52;20.70;99.90
18998;DHT22;9632;51.018;4.284;2022-10-26T16:36:17;20.70;99.90
18998;DHT22;9632;51.018;4.284;2022-10-26T16:38:43;20.70;99.90
18998;DHT22;9632;51.018;4.284;2022-10-26T16:41:13;20.70;99.90
18998;DHT22;9632;51.018;4.284;2022-10-26T16:43:41;20.70;99.90
18998;DHT22;9632;51.018;4.284;2022-10-26T16:46:14;20.60;99.90
18998;DHT22;9632;51.018;4.284;2022-10-26T16:48:42;20.60;99.90
18998;DHT22;9632;51.018;4.284;2022-10-26T16:51:22;20.60;99.90
18998;DHT22;9632;51.018;4.284;2022-10-26T16:53:50;20.60;99.90
18998;DHT22;9632;51.018;4.284;2022-10-26T16:56:18;20.50;99.90
18998;DHT22;9632;51.018;4.284;2022-10-26T16:58:44;20.40;99.90
18998;DHT22;9632;51.018;4.284;2022-10-26T17:01:11;20.40;99.90
18998;DHT22;9632;51.018;4.284;2022-10-26T17:03:38;20.40;99.90
18998;DHT22;9632;51.018;4.284;2022-10-26T17:06:06;20.40;99.90
18998;DHT22;9632;51.018;4.284;2022-10-26T17:08:33;20.30;99.90
18998;DHT22;9632;51.018;4.284;2022-10-26T17:11:19;20.30;99.90
18998;DHT22;9632;51.018;4.284;2022-10-26T17:13:46;20.30;99.90
18998;DHT22;9632;51.018;4.284;2022-10-26T17:16:16;20.20;99.90
18998;DHT22;9632;51.018;4.284;2022-10-26T17:18:43;20.20;99.90
18998;DHT22;9632;51.018;4.284;2022-10-26T17:21:10;20.20;99.90
18998;DHT22;9632;51.018;4.284;2022-10-26T17:23:36;20.20;99.90
18998;DHT22;9632;51.018;4.284;2022-10-26T17:26:02;20.20;99.90
18998;DHT22;9632;51.018;4.284;2022-10-26T17:28:28;20.20;99.90
18998;DHT22;9632;51.018;4.284;2022-10-26T17:31:05;20.10;99.90
18998;DHT22;9632;51.018;4.284;2022-10-26T17:33:32;20.10;99.90
18998;DHT22;9632;51.018;4.284;2022-10-26T17:35:58;20.10;99.90
18998;DHT22;9632;51.018;4.284;2022-10-26T17:38:24;20.10;99.90
18998;DHT22;9632;51.018;4.284;2022-10-26T17:40:49;20.00;99.90
18998;DHT22;9632;51.018;4.284;2022-10-26T17:43:15;20.00;99.90
18998;DHT22;9632;51.018;4.284;2022-10-26T17:45:40;20.00;99.90
18998;DHT22;9632;51.018;4.284;2022-10-26T17:48:06;20.00;99.90
18998;DHT22;9632;51.018;4.284;2022-10-26T17:50:31;20.00;99.90
18998;DHT22;9632;51.018;4.284;2022-10-26T17:52:57;20.00;99.90
18998;DHT22;9632;51.018;4.284;2022-10-26T17:55:24;20.00;99.90
18998;DHT22;9632;51.018;4.284;2022-10-26T17:57:50;20.00;99.90
18998;DHT22;9632;51.018;4.284;2022-10-26T18:00:15;20.00;99.90
18998;DHT22;9632;51.018;4.284;2022-10-26T18:02:42;20.00;99.90
18998;DHT22;9632;51.018;4.284;2022-10-26T18:05:08;20.00;99.90